Time;durP1;ratioP1;P1;durP2;ratioP2;P2;SDS_P1;SDS_P2;PMS_P1;PMS_P2;Temp;Humidity;BMP_temperature;BMP_pressure;BME280_temperature;BME280_humidity;BME280_pressure;Samples;Min_cycle;Max_cycle;Signal;HPM_P1;HPM_P2
2021/12/22 00:00:30;;;;;;;19.35;12.02;;;;;;;-4.30;100.00;97108.81;4963101;28;20062;-54
2021/12/22 00:02:58;;;;;;;18.42;11.90;;;;;;;-4.02;100.00;97108.09;4981033;28;20073;-49
2021/12/22 00:05:30;;;;;;;22.05;13.27;;;;;;;-3.96;100.00;97117.38;4981230;28;20074;-50
2021/12/22 00:08:00;;;;;;;20.55;13.10;;;;;;;-3.61;100.00;97113.88;4987313;28;20073;-52
2021/12/22 00:10:28;;;;;;;22.40;13.02;;;;;;;-3.72;100.00;97114.16;4986690;28;20081;-53
2021/12/22 00:12:57;;;;;;;20.02;13.95;;;;;;;-3.90;100.00;97115.50;4986111;28;20533;-49
2021/12/22 00:15:25;;;;;;;20.55;13.32;;;;;;;-4.00;100.00;97121.78;4960821;28;20067;-46
2021/12/22 00:17:53;;;;;;;22.77;14.00;;;;;;;-4.07;100.00;97121.06;4964133;28;20073;-48
2021/12/22 00:20:22;;;;;;;22.05;13.43;;;;;;;-4.01;100.00;97117.50;4966038;28;20627;-48
2021/12/22 00:22:51;;;;;;;27.13;14.88;;;;;;;-3.85;100.00;97117.97;4971127;28;20085;-52
2021/12/22 00:25:24;;;;;;;30.02;17.05;;;;;;;-3.70;100.00;97116.69;4985707;28;20086;-57
2021/12/22 00:27:53;;;;;;;27.17;15.30;;;;;;;-4.19;100.00;97118.00;4984859;28;20093;-50
2021/12/22 00:30:23;;;;;;;28.98;15.77;;;;;;;-4.02;100.00;97115.84;4984158;28;20603;-54
2021/12/22 00:32:54;;;;;;;27.48;16.05;;;;;;;-4.07;100.00;97120.25;4987121;28;20063;-52
2021/12/22 00:35:27;;;;;;;26.50;13.75;;;;;;;-3.83;100.00;97122.16;4972953;28;20066;-45
2021/12/22 00:37:55;;;;;;;23.90;13.85;;;;;;;-3.91;100.00;97125.84;4969980;28;20466;-50
2021/12/22 00:40:25;;;;;;;23.30;13.32;;;;;;;-3.68;100.00;97120.06;4982120;28;20086;-50
2021/12/22 00:42:54;;;;;;;21.92;12.68;;;;;;;-3.63;100.00;97123.38;4987367;28;20066;-49
2021/12/22 00:45:24;;;;;;;21.63;11.65;;;;;;;-3.62;100.00;97123.31;4983517;28;21805;-52
2021/12/22 00:47:52;;;;;;;23.95;12.98;;;;;;;-4.02;100.00;97123.56;4965362;28;20078;-54
2021/12/22 00:50:22;;;;;;;19.45;11.82;;;;;;;-4.27;100.00;97127.63;4979948;28;20133;-53
2021/12/22 00:52:50;;;;;;;19.83;12.38;;;;;;;-4.19;100.00;97125.72;4977766;28;20071;-58
2021/12/22 00:55:20;;;;;;;16.52;11.30;;;;;;;-4.03;100.00;97123.56;4959115;28;20077;-53
2021/12/22 00:57:51;;;;;;;19.00;11.90;;;;;;;-3.83;100.00;97129.06;4963918;28;20093;-52
2021/12/22 01:00:23;;;;;;;19.10;11.70;;;;;;;-3.76;100.00;97129.75;4964566;28;20490;-55
2021/12/22 01:02:52;;;;;;;19.95;12.48;;;;;;;-3.68;100.00;97127.78;4963279;28;20074;-52
2021/12/22 01:05:21;;;;;;;20.80;11.85;;;;;;;-3.62;100.00;97118.16;4972087;28;20054;-46
2021/12/22 01:07:50;;;;;;;25.08;12.88;;;;;;;-3.58;100.00;97118.94;4988942;28;20074;-49
2021/12/22 01:10:20;;;;;;;18.58;12.20;;;;;;;-3.68;100.00;97120.94;4981204;28;20110;-49
2021/12/22 01:12:52;;;;;;;22.30;13.77;;;;;;;-3.71;100.00;97133.06;4983409;28;20070;-53
2021/12/22 01:15:20;;;;;;;21.55;12.20;;;;;;;-3.66;100.00;97136.34;4984314;28;20078;-51
2021/12/22 01:17:57;;;;;;;21.73;12.13;;;;;;;-3.86;100.00;97134.28;4992911;28;20080;-47
2021/12/22 01:20:30;;;;;;;19.17;12.23;;;;;;;-3.65;100.00;97141.47;4971586;28;20526;-54
2021/12/22 01:23:03;;;;;;;21.08;12.90;;;;;;;-3.78;100.00;97147.00;4955821;28;20641;-50
2021/12/22 01:25:37;;;;;;;21.92;12.93;;;;;;;-3.95;100.00;97144.84;4958482;28;20074;-46
2021/12/22 01:28:07;;;;;;;21.88;12.95;;;;;;;-3.74;100.00;97148.59;4965537;28;20082;-54
2021/12/22 01:30:42;;;;;;;19.67;13.57;;;;;;;-4.55;100.00;97146.31;4965279;28;20074;-47
2021/12/22 01:33:10;;;;;;;18.75;12.20;;;;;;;-4.28;100.00;97147.38;4962373;28;20066;-51
2021/12/22 01:35:39;;;;;;;22.05;13.45;;;;;;;-3.90;100.00;97153.28;4965215;28;20074;-54
2021/12/22 01:38:08;;;;;;;25.73;14.52;;;;;;;-3.86;100.00;97144.59;4964068;28;20085;-47
2021/12/22 01:40:41;;;;;;;33.40;15.55;;;;;;;-4.10;100.00;97151.22;4961663;28;20071;-49
2021/12/22 01:43:13;;;;;;;30.33;15.27;;;;;;;-4.31;100.00;97150.84;4961016;28;20088;-50
2021/12/22 01:45:56;;;;;;;36.72;17.83;;;;;;;-4.15;100.00;97145.34;4964131;28;20062;-57
2021/12/22 01:51:32;;;;;;;46.35;17.95;;;;;;;-3.78;100.00;97153.00;4964630;28;20673;-55
2021/12/22 01:54:03;;;;;;;68.35;19.63;;;;;;;-4.09;100.00;97151.19;4978192;28;20084;-52
2021/12/22 01:56:34;;;;;;;59.08;18.90;;;;;;;-3.85;100.00;97138.59;4968614;28;20078;-49
2021/12/22 01:59:08;;;;;;;58.65;18.83;;;;;;;-3.91;100.00;97136.16;4966808;28;20084;-57
2021/12/22 02:01:37;;;;;;;63.20;18.10;;;;;;;-3.59;100.00;97137.88;4981911;28;20077;-53
2021/12/22 02:04:10;;;;;;;85.18;20.27;;;;;;;-4.08;100.00;97144.31;4980681;28;20082;-50
2021/12/22 02:06:40;;;;;;;57.92;18.75;;;;;;;-4.11;100.00;97134.91;4981567;28;20129;-50
2021/12/22 02:09:12;;;;;;;;;;;;;;;-3.87;100.00;97137.75;4983337;28;20107;-50
2021/12/22 02:11:40;;;;;;;44.87;17.30;;;;;;;-3.55;100.00;97130.88;4978196;28;19956;-48
2021/12/22 02:14:10;;;;;;;45.80;17.73;;;;;;;-3.87;100.00;97142.91;4985663;28;20066;-50
2021/12/22 02:16:40;;;;;;;51.33;17.63;;;;;;;-3.79;100.00;97140.97;4985271;28;20116;-46
2021/12/22 02:19:10;;;;;;;63.00;19.13;;;;;;;-3.63;100.00;97141.41;4982785;28;20089;-48
2021/12/22 02:21:45;;;;;;;54.30;19.73;;;;;;;-3.26;100.00;97132.69;4982200;28;20667;-55
2021/12/22 02:24:13;;;;;;;78.95;19.90;;;;;;;-3.35;100.00;97133.75;4982514;28;20070;-54
2021/12/22 02:26:47;;;;;;;69.10;19.33;;;;;;;-3.97;100.00;97139.72;4983189;28;20081;-48
2021/12/22 02:29:21;;;;;;;56.38;18.40;;;;;;;-3.43;100.00;97133.97;4994839;28;20070;-51
2021/12/22 02:32:00;;;;;;;56.35;18.08;;;;;;;-4.06;100.00;97151.13;4971709;28;20526;-48
2021/12/22 02:34:29;;;;;;;66.97;18.45;;;;;;;-3.89;100.00;97150.69;4955617;28;20130;-49
2021/12/22 02:37:02;;;;;;;67.25;17.88;;;;;;;-4.07;100.00;97157.13;4965660;28;20614;-47
2021/12/22 02:39:31;;;;;;;84.55;18.48;;;;;;;-4.15;100.00;97160.81;4962556;28;20066;-48
2021/12/22 02:41:59;;;;;;;54.53;18.00;;;;;;;-4.48;100.00;97153.00;4957977;28;20066;-48
2021/12/22 02:44:27;;;;;;;60.20;18.80;;;;;;;-3.99;100.00;97154.38;4961826;28;20066;-50
2021/12/22 02:46:56;;;;;;;74.15;19.20;;;;;;;-4.16;100.00;97146.25;4958388;28;20074;-49
2021/12/22 02:49:24;;;;;;;81.40;19.80;;;;;;;-3.70;100.00;97140.75;4958632;28;20097;-52
2021/12/22 02:51:53;;;;;;;76.20;19.10;;;;;;;-4.02;100.00;97141.59;4964627;28;20082;-55
2021/12/22 02:54:26;;;;;;;81.63;18.55;;;;;;;-4.28;100.00;97146.53;4959882;28;20054;-55
2021/12/22 02:57:07;;;;;;;72.78;19.23;;;;;;;-4.06;100.00;97145.97;4978158;28;20086;-53
2021/12/22 02:59:48;;;;;;;52.30;17.02;;;;;;;-4.06;100.00;97143.41;4971987;28;20070;-51
2021/12/22 03:02:26;;;;;;;61.40;18.00;;;;;;;-3.93;100.00;97149.06;4959623;28;20468;-47
2021/12/22 03:04:55;;;;;;;54.35;17.77;;;;;;;-4.31;100.00;97140.56;4966801;28;20066;-49
2021/12/22 03:07:27;;;;;;;40.80;17.67;;;;;;;-4.06;100.00;97145.09;4982635;28;20082;-49
2021/12/22 03:10:00;;;;;;;41.53;16.52;;;;;;;-3.83;100.00;97142.78;4978119;28;20074;-55
2021/12/22 03:12:33;;;;;;;47.10;17.42;;;;;;;-4.35;100.00;97153.56;4983046;28;20078;-48
2021/12/22 03:15:02;;;;;;;48.10;16.90;;;;;;;-4.62;100.00;97161.03;4996360;28;20766;-45
2021/12/22 03:17:31;;;;;;;41.72;17.17;;;;;;;-4.39;100.00;97157.09;4979086;28;20057;-52
2021/12/22 03:19:59;;;;;;;38.67;16.13;;;;;;;-4.56;100.00;97162.63;4977065;28;20062;-54
2021/12/22 03:22:28;;;;;;;45.40;16.65;;;;;;;-4.19;100.00;97154.03;4989956;28;20080;-55
2021/12/22 03:24:58;;;;;;;33.88;15.85;;;;;;;-4.49;100.00;97150.47;4982241;28;20524;-56
2021/12/22 03:27:26;;;;;;;47.13;17.00;;;;;;;-4.83;100.00;97158.94;4983153;28;20294;-51
2021/12/22 03:29:55;;;;;;;39.05;16.55;;;;;;;-4.59;100.00;97158.41;4981179;28;20070;-55
2021/12/22 03:32:23;;;;;;;28.75;15.18;;;;;;;-4.07;100.00;97162.28;4984184;28;20066;-54
2021/12/22 03:34:52;;;;;;;28.90;14.88;;;;;;;-4.13;100.00;97165.03;4988324;28;20062;-49
2021/12/22 03:37:20;;;;;;;27.35;14.50;;;;;;;-4.20;100.00;97170.34;4984379;28;20066;-51
2021/12/22 03:39:49;;;;;;;24.40;14.63;;;;;;;-4.13;100.00;97166.75;4992264;28;20625;-49
2021/12/22 03:42:19;;;;;;;23.23;14.68;;;;;;;-3.93;100.00;97168.81;4987930;28;20070;-55
2021/12/22 03:44:48;;;;;;;27.73;14.85;;;;;;;-3.96;100.00;97164.59;4982406;28;20081;-55
2021/12/22 03:47:17;;;;;;;27.52;14.43;;;;;;;-4.02;100.00;97158.78;4989878;28;20528;-53
2021/12/22 03:49:45;;;;;;;21.33;13.68;;;;;;;-4.13;100.00;97170.19;4986353;28;20065;-54
2021/12/22 03:52:14;;;;;;;24.77;14.75;;;;;;;-4.21;100.00;97171.25;4984882;28;20096;-55
2021/12/22 03:54:43;;;;;;;31.65;15.00;;;;;;;-4.41;100.00;97166.56;4987636;28;20422;-49
2021/12/22 03:57:11;;;;;;;45.75;16.10;;;;;;;-5.01;100.00;97166.19;4968074;28;20070;-51
2021/12/22 03:59:41;;;;;;;38.30;17.10;;;;;;;-5.09;100.00;97164.66;4958359;28;20102;-52
2021/12/22 04:02:10;;;;;;;61.00;16.33;;;;;;;-4.70;100.00;97167.25;4966600;28;20054;-48
2021/12/22 04:04:39;;;;;;;46.88;16.02;;;;;;;-4.76;100.00;97168.22;4983865;28;20295;-48
2021/12/22 04:07:08;;;;;;;59.70;17.17;;;;;;;-4.68;100.00;97168.03;4984717;28;20078;-57
2021/12/22 04:09:36;;;;;;;54.17;16.55;;;;;;;-4.84;100.00;97159.84;4994940;28;20097;-50
2021/12/22 04:12:05;;;;;;;42.63;16.73;;;;;;;-4.86;100.00;97159.84;4986925;28;20100;-58
2021/12/22 04:14:34;;;;;;;31.98;16.75;;;;;;;-5.13;100.00;97170.72;4985399;28;20081;-52
2021/12/22 04:17:04;;;;;;;32.67;17.15;;;;;;;-4.79;100.00;97170.84;4978636;28;20104;-55
2021/12/22 04:19:32;;;;;;;;;;;;;;;-4.96;100.00;97183.25;4978135;28;21779;-52
2021/12/22 04:22:01;;;;;;;34.60;17.13;;;;;;;-4.69;100.00;97171.50;4984104;28;19961;-51
2021/12/22 04:24:29;;;;;;;39.67;17.58;;;;;;;-4.74;100.00;97181.06;4987647;28;20065;-54
2021/12/22 04:26:57;;;;;;;27.73;16.00;;;;;;;-4.72;100.00;97182.72;4981718;28;20578;-56
2021/12/22 04:29:26;;;;;;;36.47;16.63;;;;;;;-4.54;100.00;97177.16;4970732;28;20070;-51
2021/12/22 04:31:54;;;;;;;31.92;16.70;;;;;;;-4.95;100.00;97187.53;4962114;28;20470;-52
2021/12/22 04:34:24;;;;;;;35.80;17.15;;;;;;;-5.06;100.00;97178.31;4959973;28;20093;-50
2021/12/22 04:36:53;;;;;;;35.75;16.08;;;;;;;-4.91;100.00;97189.16;4969034;28;20093;-50
2021/12/22 04:39:21;;;;;;;34.42;16.23;;;;;;;-4.78;100.00;97180.28;4963954;28;20074;-51
2021/12/22 04:41:50;;;;;;;34.20;16.63;;;;;;;-4.31;100.00;97183.50;4958052;28;20074;-48
2021/12/22 04:44:18;;;;;;;28.13;14.65;;;;;;;-4.41;100.00;97182.00;4985484;28;20070;-50
2021/12/22 04:46:46;;;;;;;31.17;16.20;;;;;;;-4.51;100.00;97170.22;4972846;28;20058;-52
2021/12/22 04:49:15;;;;;;;34.65;15.80;;;;;;;-4.99;100.00;97178.16;4958788;28;20078;-53
2021/12/22 04:51:50;;;;;;;31.58;15.43;;;;;;;-5.19;100.00;97174.28;4976923;28;20071;-52
2021/12/22 04:54:30;;;;;;;32.40;15.65;;;;;;;-4.78;100.00;97172.56;4970674;28;20066;-55
2021/12/22 04:57:00;;;;;;;;;;;;;;;-5.02;100.00;97174.78;4966022;28;20121;-52
2021/12/22 04:59:28;;;;;;;32.92;15.48;;;;;;;-4.77;100.00;97187.13;4958667;28;19965;-46
2021/12/22 05:01:57;;;;;;;29.73;15.73;;;;;;;-4.85;100.00;97182.16;4969083;28;20625;-50
2021/12/22 05:04:26;;;;;;;30.95;16.10;;;;;;;-4.66;100.00;97177.44;5001037;28;20061;-51
2021/12/22 05:06:55;;;;;;;34.17;16.23;;;;;;;-4.80;100.00;97174.31;4990458;28;20101;-49
2021/12/22 05:09:24;;;;;;;41.13;16.63;;;;;;;-5.46;100.00;97185.13;4986531;28;20057;-53
2021/12/22 05:11:52;;;;;;;43.47;16.85;;;;;;;-5.13;100.00;97175.88;4992631;28;20079;-50
2021/12/22 05:14:20;;;;;;;31.73;17.33;;;;;;;-5.36;100.00;97186.63;4976822;28;20097;-51
2021/12/22 05:16:52;;;;;;;35.25;17.58;;;;;;;-5.07;100.00;97183.47;4963011;28;20078;-52
2021/12/22 05:19:20;;;;;;;26.27;15.63;;;;;;;-5.39;100.00;97186.69;4966597;28;20081;-50
2021/12/22 05:21:49;;;;;;;27.08;15.55;;;;;;;-5.80;100.00;97181.44;4991198;28;20078;-50
2021/12/22 05:24:19;;;;;;;27.02;15.70;;;;;;;-5.93;100.00;97176.59;4990111;28;20081;-50
2021/12/22 05:26:47;;;;;;;26.73;15.82;;;;;;;-5.59;100.00;97177.63;4990920;28;20078;-51
2021/12/22 05:29:16;;;;;;;25.48;17.20;;;;;;;-5.83;100.00;97188.38;4976252;28;20063;-47
2021/12/22 05:31:44;;;;;;;26.20;15.90;;;;;;;-6.16;100.00;97184.66;4963068;28;20067;-48
2021/12/22 05:34:13;;;;;;;22.30;14.95;;;;;;;-6.26;100.00;97184.84;4964418;28;20078;-55
2021/12/22 05:36:41;;;;;;;24.23;15.02;;;;;;;-6.25;100.00;97178.00;4988569;28;20088;-56
2021/12/22 05:39:09;;;;;;;24.67;15.68;;;;;;;-6.00;100.00;97184.38;4984563;28;20074;-46
2021/12/22 05:41:39;;;;;;;25.10;15.65;;;;;;;-6.17;100.00;97180.41;4989563;28;20535;-47
2021/12/22 05:44:08;;;;;;;22.02;15.05;;;;;;;-6.09;100.00;97173.44;4984031;28;20077;-52
2021/12/22 05:46:36;;;;;;;24.90;15.15;;;;;;;-5.95;100.00;97180.88;4986358;28;20066;-53
2021/12/22 05:49:04;;;;;;;23.45;16.33;;;;;;;-6.08;100.00;97186.25;4995473;28;20437;-49
2021/12/22 05:51:34;;;;;;;24.05;15.85;;;;;;;-5.94;100.00;97187.75;4981307;28;20069;-48
2021/12/22 05:54:03;;;;;;;21.98;15.18;;;;;;;-5.98;100.00;97185.22;4985795;28;20082;-51
2021/12/22 05:56:32;;;;;;;24.50;15.70;;;;;;;-6.29;100.00;97184.88;4990594;28;20070;-49
2021/12/22 05:59:01;;;;;;;26.63;15.75;;;;;;;-5.74;100.00;97195.91;4985879;28;20073;-58
2021/12/22 06:01:30;;;;;;;24.83;15.30;;;;;;;-5.45;100.00;97181.66;4984792;28;20467;-48
2021/12/22 06:04:00;;;;;;;24.05;15.18;;;;;;;-5.37;100.00;97188.34;4987088;28;20477;-54
2021/12/22 06:06:29;;;;;;;26.35;15.80;;;;;;;-6.09;100.00;97184.56;4993448;28;20077;-51
2021/12/22 06:09:01;;;;;;;23.85;16.05;;;;;;;-5.84;100.00;97181.53;4981756;28;20143;-53
2021/12/22 06:11:30;;;;;;;22.92;15.20;;;;;;;-5.92;100.00;97183.41;4988429;28;20524;-51
2021/12/22 06:13:59;;;;;;;24.02;15.82;;;;;;;-5.90;100.00;97181.63;4987793;28;20074;-49
2021/12/22 06:16:30;;;;;;;23.73;16.60;;;;;;;-5.76;100.00;97177.94;4988103;28;20077;-52
2021/12/22 06:19:02;;;;;;;23.60;15.00;;;;;;;-5.59;100.00;97187.06;4986472;28;20089;-54
2021/12/22 06:21:31;;;;;;;24.73;15.70;;;;;;;-5.54;100.00;97180.09;4983273;28;20576;-46
2021/12/22 06:23:59;;;;;;;26.85;16.42;;;;;;;-5.78;100.00;97186.53;4969590;28;20484;-51
2021/12/22 06:26:28;;;;;;;24.90;15.05;;;;;;;-6.12;100.00;97188.91;4956360;28;20869;-49
2021/12/22 06:28:57;;;;;;;23.38;15.70;;;;;;;-5.73;100.00;97184.75;4960393;28;20480;-49
2021/12/22 06:31:25;;;;;;;30.33;16.45;;;;;;;-5.85;100.00;97185.84;4965108;28;20571;-49
2021/12/22 06:33:55;;;;;;;41.42;18.75;;;;;;;-5.56;100.00;97193.00;4967897;28;20074;-52
2021/12/22 06:36:23;;;;;;;37.33;17.55;;;;;;;-5.34;100.00;97200.28;4962644;28;20089;-50
2021/12/22 06:38:52;;;;;;;39.45;17.60;;;;;;;-5.27;100.00;97200.13;4964035;28;20070;-60
2021/12/22 06:41:20;;;;;;;26.75;16.05;;;;;;;-5.28;100.00;97197.59;4980448;28;20661;-47
2021/12/22 06:43:48;;;;;;;27.52;16.23;;;;;;;-5.17;100.00;97207.66;4980224;28;20077;-54
2021/12/22 06:46:17;;;;;;;23.75;16.17;;;;;;;-5.88;100.00;97197.88;4961550;28;20742;-50
2021/12/22 06:48:46;;;;;;;25.08;16.20;;;;;;;-5.83;100.00;97190.94;4965272;28;20082;-48
2021/12/22 06:51:15;;;;;;;24.95;15.93;;;;;;;-6.00;100.00;97194.66;4985772;28;20065;-50
2021/12/22 06:53:44;;;;;;;26.00;16.20;;;;;;;-5.72;100.00;97197.56;4983950;28;20074;-48
2021/12/22 06:56:12;;;;;;;24.25;16.55;;;;;;;-5.89;100.00;97201.31;4976050;28;20066;-50
2021/12/22 06:58:41;;;;;;;23.58;15.48;;;;;;;-5.89;100.00;97197.00;4973869;28;20475;-49
2021/12/22 07:01:12;;;;;;;25.10;16.00;;;;;;;-5.75;100.00;97197.63;4996529;28;20089;-49
2021/12/22 07:03:41;;;;;;;26.13;15.18;;;;;;;-5.83;100.00;97203.78;4989824;28;21417;-52
2021/12/22 07:06:09;;;;;;;25.33;15.40;;;;;;;-5.59;100.00;97199.91;4999557;28;20077;-55
2021/12/22 07:08:39;;;;;;;25.35;16.23;;;;;;;-5.22;100.00;97197.50;4994857;28;20069;-52
2021/12/22 07:11:08;;;;;;;26.95;15.63;;;;;;;-5.24;100.00;97194.09;4983476;28;20066;-50
2021/12/22 07:13:36;;;;;;;27.48;16.08;;;;;;;-5.17;100.00;97194.81;4974095;28;20066;-48
2021/12/22 07:16:05;;;;;;;27.17;16.67;;;;;;;-5.68;100.00;97200.06;4989483;28;20078;-49
2021/12/22 07:18:34;;;;;;;30.45;16.92;;;;;;;-5.80;100.00;97191.72;4988390;28;20084;-52
2021/12/22 07:21:03;;;;;;;29.05;15.68;;;;;;;-5.93;100.00;97204.84;4990494;28;20619;-50
2021/12/22 07:23:31;;;;;;;28.83;16.52;;;;;;;-5.44;100.00;97206.47;4991708;28;20512;-50
2021/12/22 07:26:01;;;;;;;26.92;16.70;;;;;;;-5.27;100.00;97205.28;4991534;28;20085;-46
2021/12/22 07:28:30;;;;;;;27.35;15.93;;;;;;;-4.98;100.00;97201.28;4986756;28;20085;-49
2021/12/22 07:30:58;;;;;;;46.55;25.92;;;;;;;-5.08;100.00;97197.22;4995524;28;20081;-51
2021/12/22 07:33:26;;;;;;;27.95;17.23;;;;;;;-4.80;100.00;97193.16;4994926;28;20073;-49
2021/12/22 07:35:59;;;;;;;24.88;15.75;;;;;;;-4.99;100.00;97189.28;4986647;28;20070;-46
2021/12/22 07:38:37;;;;;;;23.83;15.27;;;;;;;-5.27;100.00;97194.16;4985083;28;20070;-51
2021/12/22 07:41:08;;;;;;;27.98;16.80;;;;;;;-4.91;100.00;97192.56;4995607;28;20076;-49
2021/12/22 07:43:37;;;;;;;26.73;15.48;;;;;;;-4.69;100.00;97185.22;4990658;28;20057;-52
2021/12/22 07:46:08;;;;;;;29.50;16.52;;;;;;;-4.48;100.00;97188.19;4989052;28;20073;-52
2021/12/22 07:48:37;;;;;;;28.25;16.50;;;;;;;-4.51;100.00;97194.25;4971342;28;20418;-49
2021/12/22 07:51:05;;;;;;;30.65;16.95;;;;;;;-4.44;100.00;97195.81;4963676;28;20070;-51
2021/12/22 07:53:34;;;;;;;25.25;16.60;;;;;;;-4.39;100.00;97187.97;4970047;28;20081;-49
2021/12/22 07:56:02;;;;;;;30.50;17.92;;;;;;;-4.63;100.00;97184.25;4968870;28;20070;-52
2021/12/22 07:58:32;;;;;;;33.10;18.10;;;;;;;-4.36;100.00;97188.75;4972369;28;20075;-51
2021/12/22 08:01:01;;;;;;;31.13;17.70;;;;;;;-4.09;100.00;97179.53;4994172;28;20085;-53
2021/12/22 08:03:29;;;;;;;27.40;15.60;;;;;;;-3.82;100.00;97190.88;4991669;28;20069;-49
2021/12/22 08:06:14;;;;;;;26.20;16.83;;;;;;;-3.72;100.00;97194.03;4995913;28;20081;-48
2021/12/22 08:08:43;;;;;;;30.27;17.13;;;;;;;-3.65;100.00;97195.59;4988899;28;20085;-57
2021/12/22 08:11:11;;;;;;;29.58;17.65;;;;;;;-3.55;100.00;97185.88;4979609;28;20478;-55
2021/12/22 08:13:41;;;;;;;27.85;17.17;;;;;;;-3.38;100.00;97185.41;4968175;28;20069;-54
2021/12/22 08:16:10;;;;;;;29.15;17.52;;;;;;;-3.42;100.00;97188.97;4992566;28;20532;-55
2021/12/22 08:18:38;;;;;;;30.63;18.02;;;;;;;-3.32;100.00;97187.84;4994558;28;20467;-50
2021/12/22 08:21:06;;;;;;;29.70;17.50;;;;;;;-3.26;100.00;97190.25;4985249;28;20070;-52
2021/12/22 08:23:39;;;;;;;32.00;18.70;;;;;;;-2.96;100.00;97191.13;4976075;28;20628;-57
2021/12/22 08:26:08;;;;;;;33.28;18.35;;;;;;;-2.85;100.00;97193.41;4985502;28;20074;-48
2021/12/22 08:28:36;;;;;;;34.80;19.73;;;;;;;-2.94;100.00;97201.38;4993829;28;20073;-54
2021/12/22 08:31:06;;;;;;;37.10;19.52;;;;;;;-2.58;100.00;97202.06;4987034;28;20077;-50
2021/12/22 08:33:42;;;;;;;33.30;18.88;;;;;;;-2.59;100.00;97200.34;4980890;28;20062;-51
2021/12/22 08:39:00;;;;;;;27.90;17.85;;;;;;;-2.22;100.00;97205.22;4989899;28;20142;-53
2021/12/22 08:41:31;;;;;;;32.65;18.33;;;;;;;-2.29;100.00;97208.06;4986324;28;20080;-51
2021/12/22 08:44:02;;;;;;;28.65;17.98;;;;;;;-2.75;100.00;97210.31;4981654;28;20074;-52
2021/12/22 08:46:37;;;;;;;31.23;18.50;;;;;;;-2.10;100.00;97208.31;4971292;28;20082;-50
2021/12/22 08:49:07;;;;;;;30.95;17.70;;;;;;;-2.05;100.00;97217.63;4994971;28;20093;-49
2021/12/22 08:51:37;;;;;;;27.65;18.05;;;;;;;-2.09;100.00;97216.03;4966153;28;20070;-49
2021/12/22 08:54:05;;;;;;;28.58;18.27;;;;;;;-1.85;100.00;97214.41;4967319;28;20058;-51
2021/12/22 08:56:34;;;;;;;34.03;18.48;;;;;;;-1.61;100.00;97217.91;4977104;28;20078;-51
2021/12/22 08:59:04;;;;;;;30.58;17.50;;;;;;;-1.91;100.00;97207.69;4985217;28;20449;-48
2021/12/22 09:01:35;;;;;;;30.75;18.48;;;;;;;-1.58;100.00;97216.94;4985783;28;20082;-54
2021/12/22 09:04:04;;;;;;;38.72;20.40;;;;;;;-1.35;100.00;97213.56;4994288;28;20082;-46
2021/12/22 09:06:33;;;;;;;37.50;21.27;;;;;;;-1.33;100.00;97206.63;4989504;28;20107;-48
2021/12/22 09:09:01;;;;;;;36.72;20.70;;;;;;;-1.61;100.00;97211.91;4980495;28;20124;-52
2021/12/22 09:11:30;;;;;;;35.67;21.02;;;;;;;-1.29;100.00;97211.63;4992346;28;20062;-47
2021/12/22 09:13:59;;;;;;;36.58;19.88;;;;;;;-1.75;100.00;97217.53;4996429;28;20074;-54
2021/12/22 09:16:27;;;;;;;33.90;20.45;;;;;;;-1.58;100.00;97219.53;4983788;28;20089;-54
2021/12/22 09:19:03;;;;;;;39.47;21.27;;;;;;;-1.42;100.00;97227.63;4992332;28;20074;-54
2021/12/22 09:21:32;;;;;;;38.47;23.38;;;;;;;-1.69;100.00;97223.34;4962198;28;20074;-49
2021/12/22 09:24:01;;;;;;;42.97;21.75;;;;;;;-1.59;100.00;97218.69;4983683;28;20722;-48
2021/12/22 09:26:29;;;;;;;42.85;24.15;;;;;;;-1.55;100.00;97228.06;4973439;28;20058;-53
2021/12/22 09:28:58;;;;;;;41.78;22.42;;;;;;;-1.48;100.00;97231.25;4973248;28;20144;-49
2021/12/22 09:31:27;;;;;;;44.95;21.73;;;;;;;-1.00;100.00;97227.84;4992259;28;20069;-49
2021/12/22 09:33:55;;;;;;;43.65;22.77;;;;;;;-1.16;100.00;97231.91;4987374;28;20086;-51
2021/12/22 09:36:25;;;;;;;36.17;20.55;;;;;;;-0.91;100.00;97232.72;4989091;28;20070;-52
2021/12/22 09:38:54;;;;;;;38.90;21.55;;;;;;;-0.75;100.00;97215.72;4990430;28;20058;-53
2021/12/22 09:41:22;;;;;;;39.90;22.25;;;;;;;-0.89;100.00;97215.38;4990846;28;20085;-52
2021/12/22 09:43:53;;;;;;;38.05;21.08;;;;;;;-0.75;100.00;97220.06;4979768;28;20570;-51
2021/12/22 09:46:23;;;;;;;37.50;21.27;;;;;;;-1.55;100.00;97222.00;4976048;28;20086;-50
2021/12/22 09:48:59;;;;;;;34.63;20.45;;;;;;;-0.51;100.00;97218.31;4969308;28;20083;-46
2021/12/22 09:54:16;;;;;;;35.58;21.48;;;;;;;-0.70;100.00;97209.53;4955769;28;20059;-55
2021/12/22 09:56:45;;;;;;;31.33;19.80;;;;;;;-0.43;100.00;97199.88;4961300;28;20075;-49
2021/12/22 09:59:13;;;;;;;35.38;19.25;;;;;;;0.08;100.00;97194.38;4965536;28;20065;-56
2021/12/22 10:01:41;;;;;;;33.42;19.40;;;;;;;-0.43;100.00;97200.72;4981374;28;20078;-52
2021/12/22 10:04:10;;;;;;;34.97;20.35;;;;;;;-0.64;100.00;97197.19;4993051;28;20062;-46
2021/12/22 10:06:58;;;;;;;37.40;19.83;;;;;;;-0.16;100.00;97210.91;4988651;28;20053;-51
2021/12/22 10:09:27;;;;;;;36.15;20.17;;;;;;;0.13;100.00;97201.94;4988983;28;20532;-49
2021/12/22 10:11:55;;;;;;;36.47;19.33;;;;;;;-0.47;100.00;97193.97;4978053;28;20085;-49
2021/12/22 10:14:52;;;;;;;36.85;19.90;;;;;;;-0.14;100.00;97191.78;4981201;28;20081;-46
2021/12/22 10:17:29;;;;;;;36.53;18.90;;;;;;;-0.10;100.00;97187.34;4990362;28;20074;-52
2021/12/22 10:19:58;;;;;;;34.50;19.42;;;;;;;0.03;100.00;97182.50;4988402;28;20090;-52
2021/12/22 10:22:34;;;;;;;31.65;19.63;;;;;;;-0.41;100.00;97177.31;4983517;28;20089;-49
2021/12/22 10:25:08;;;;;;;32.63;19.73;;;;;;;-0.12;100.00;97176.19;4984284;28;20078;-54
2021/12/22 10:27:38;;;;;;;28.55;19.10;;;;;;;-0.56;100.00;97177.00;4979839;28;20535;-50
2021/12/22 10:30:24;;;;;;;31.27;19.48;;;;;;;-0.76;100.00;97166.56;4964949;28;20090;-55
2021/12/22 10:33:06;;;;;;;32.85;19.42;;;;;;;-0.63;100.00;97164.34;4962898;28;20090;-52
2021/12/22 10:35:37;;;;;;;31.90;20.15;;;;;;;-0.76;100.00;97158.78;4962497;28;20561;-46
2021/12/22 10:38:08;;;;;;;35.75;20.88;;;;;;;-0.28;100.00;97162.97;4973501;28;20081;-50
2021/12/22 10:40:38;;;;;;;32.97;20.35;;;;;;;-0.39;100.00;97152.19;4992628;28;20089;-47
2021/12/22 10:43:09;;;;;;;30.67;19.30;;;;;;;-0.27;100.00;97147.38;4983701;28;20089;-47
2021/12/22 10:45:38;;;;;;;33.38;20.23;;;;;;;-0.07;100.00;97150.91;4984065;28;20343;-51
2021/12/22 10:50:56;;;;;;;31.80;19.40;;;;;;;0.14;100.00;97142.25;4986298;28;20085;-55
2021/12/22 10:53:27;;;;;;;32.90;20.45;;;;;;;0.11;100.00;97142.38;4974300;28;20078;-51
2021/12/22 10:55:57;;;;;;;33.95;18.98;;;;;;;0.28;100.00;97133.91;4966190;28;20073;-55
2021/12/22 10:58:28;;;;;;;30.35;19.05;;;;;;;0.34;100.00;97135.38;4966318;28;20108;-48
2021/12/22 11:01:08;;;;;;;32.85;19.25;;;;;;;0.28;100.00;97128.72;4965262;28;20093;-45
2021/12/22 11:03:41;;;;;;;28.63;17.95;;;;;;;0.15;100.00;97133.56;4978159;28;20230;-52
2021/12/22 11:06:15;;;;;;;29.50;19.52;;;;;;;0.30;100.00;97123.44;4967323;28;20066;-53
2021/12/22 11:08:55;;;;;;;31.42;19.30;;;;;;;0.70;100.00;97120.81;4964233;28;20075;-46
2021/12/22 11:11:23;;;;;;;23.98;17.50;;;;;;;0.22;100.00;97122.03;4972443;28;20068;-50
2021/12/22 11:14:09;;;;;;;28.23;19.38;;;;;;;0.18;100.00;97123.06;4980983;28;20086;-52
2021/12/22 11:16:51;;;;;;;27.00;17.58;;;;;;;0.12;100.00;97114.69;4967955;28;20122;-48
2021/12/22 11:19:20;;;;;;;31.90;19.80;;;;;;;0.02;100.00;97113.41;4986886;28;20481;-48
2021/12/22 11:22:03;;;;;;;25.95;18.13;;;;;;;-0.06;100.00;97108.53;4988153;28;20100;-49
2021/12/22 11:24:34;;;;;;;29.05;18.45;;;;;;;0.08;100.00;97102.78;4978856;28;20089;-47
2021/12/22 11:27:04;;;;;;;27.67;17.80;;;;;;;0.11;100.00;97100.91;4992332;28;20058;-47
2021/12/22 11:29:34;;;;;;;27.65;15.85;;;;;;;0.35;100.00;97093.81;4986157;28;20124;-47
2021/12/22 11:32:05;;;;;;;25.60;17.20;;;;;;;0.44;100.00;97088.22;4984007;28;20061;-48
2021/12/22 11:34:36;;;;;;;28.33;17.27;;;;;;;0.89;100.00;97086.22;4980749;28;20085;-46
2021/12/22 11:37:06;;;;;;;29.65;20.15;;;;;;;0.42;100.00;97082.25;4994131;28;20085;-49